SWA869 KPHX-KLAX
Flight info
| Callsign | SWA869 |
|---|---|
| Flight time | 0h 51m |
| Altitude | 32000 |
| Route | KEENS3 WLVRN ESTWD HLYWD1 |
| Aircraft | B38M/M-SADE2E3GHIJ4J7P2RWZ/LB1D1 |
Departure
| Time | 2026-05-07 22:58 |
|---|---|
| Airport | Phoenix Sky Harbor International Airport (KPHX) |
Arrival
| Time | 2026-05-07 23:50 |
|---|---|
| Airport | Los Angeles International Airport (KLAX) |
| Time | Latitude | Longitude | Altitude | Speed | Heading |
|---|---|---|---|---|---|
| 2026-05-07 22:28 | 33.43391 | -111.99997 | 1126 ft | 0 kts | 87° |
| 2026-05-07 22:52 | 33.43391 | -112.00004 | 1127 ft | 4 kts | 90° |
| 2026-05-07 22:52 | 33.43397 | -112.00032 | 1121 ft | 4 kts | 137° |
| 2026-05-07 22:53 | 33.43419 | -112.00042 | 1120 ft | 2 kts | 179° |
| 2026-05-07 22:53 | 33.43421 | -112.00042 | 1125 ft | 1 kts | 180° |
| 2026-05-07 22:55 | 33.43420 | -112.00042 | 1125 ft | 1 kts | 180° |
| 2026-05-07 22:56 | 33.43376 | -112.00043 | 1121 ft | 23 kts | 181° |
| 2026-05-07 22:56 | 33.43282 | -111.99920 | 1126 ft | 25 kts | 89° |
| 2026-05-07 22:56 | 33.43283 | -111.99695 | 1123 ft | 29 kts | 90° |
| 2026-05-07 22:56 | 33.43283 | -111.99428 | 1125 ft | 34 kts | 90° |
| 2026-05-07 22:57 | 33.43198 | -111.99346 | 1122 ft | 20 kts | 178° |
| 2026-05-07 22:57 | 33.43110 | -111.99408 | 1140 ft | 13 kts | 261° |
| 2026-05-07 22:57 | 33.43104 | -111.99543 | 1126 ft | 22 kts | 271° |
| 2026-05-07 22:57 | 33.43106 | -111.99817 | 1126 ft | 55 kts | 270° |
| 2026-05-07 22:58 | 33.43105 | -112.00566 | 1127 ft | 124 kts | 270° |
| 2026-05-07 22:58 | 33.43109 | -112.01846 | 1163 ft | 179 kts | 270° |
| 2026-05-07 22:58 | 33.43103 | -112.03432 | 1708 ft | 195 kts | 268° |
| 2026-05-07 22:58 | 33.42999 | -112.05052 | 2461 ft | 201 kts | 265° |
| 2026-05-07 22:59 | 33.42876 | -112.06846 | 2940 ft | 229 kts | 265° |
| 2026-05-07 22:59 | 33.42440 | -112.08726 | 3702 ft | 238 kts | 248° |
| 2026-05-07 22:59 | 33.41843 | -112.10611 | 4547 ft | 249 kts | 250° |
| 2026-05-07 22:59 | 33.41226 | -112.12623 | 5230 ft | 266 kts | 251° |
| 2026-05-07 23:00 | 33.40589 | -112.14699 | 6115 ft | 270 kts | 251° |
| 2026-05-07 23:00 | 33.39931 | -112.16834 | 6967 ft | 278 kts | 251° |
| 2026-05-07 23:00 | 33.39307 | -112.19074 | 7722 ft | 287 kts | 262° |
| 2026-05-07 23:00 | 33.39356 | -112.21394 | 8642 ft | 286 kts | 282° |
| 2026-05-07 23:01 | 33.39691 | -112.23787 | 9455 ft | 295 kts | 282° |
| 2026-05-07 23:01 | 33.40036 | -112.26229 | 10271 ft | 302 kts | 282° |
| 2026-05-07 23:01 | 33.40406 | -112.28779 | 10789 ft | 320 kts | 282° |
| 2026-05-07 23:01 | 33.40801 | -112.31469 | 11337 ft | 335 kts | 282° |
| 2026-05-07 23:02 | 33.41215 | -112.34260 | 12074 ft | 343 kts | 282° |
| 2026-05-07 23:02 | 33.41633 | -112.37086 | 13017 ft | 346 kts | 282° |
| 2026-05-07 23:02 | 33.42056 | -112.39946 | 13869 ft | 352 kts | 282° |
| 2026-05-07 23:02 | 33.42483 | -112.42844 | 14710 ft | 356 kts | 282° |
| 2026-05-07 23:03 | 33.42918 | -112.45792 | 15545 ft | 360 kts | 282° |
| 2026-05-07 23:03 | 33.43355 | -112.48761 | 16359 ft | 365 kts | 281° |
| 2026-05-07 23:03 | 33.43797 | -112.51775 | 17153 ft | 370 kts | 281° |
| 2026-05-07 23:03 | 33.44239 | -112.54790 | 17930 ft | 375 kts | 281° |
| 2026-05-07 23:04 | 33.44693 | -112.57882 | 18623 ft | 379 kts | 282° |
| 2026-05-07 23:04 | 33.45036 | -112.61030 | 19263 ft | 385 kts | 273° |
| 2026-05-07 23:04 | 33.45070 | -112.64257 | 19915 ft | 390 kts | 272° |
| 2026-05-07 23:04 | 33.45116 | -112.67528 | 20523 ft | 395 kts | 273° |
| 2026-05-07 23:05 | 33.45160 | -112.70846 | 21142 ft | 400 kts | 273° |
| 2026-05-07 23:05 | 33.45204 | -112.74190 | 21745 ft | 405 kts | 273° |
| 2026-05-07 23:05 | 33.45250 | -112.77580 | 22358 ft | 409 kts | 275° |
| 2026-05-07 23:05 | 33.45728 | -112.80925 | 22912 ft | 408 kts | 292° |
| 2026-05-07 23:06 | 33.46769 | -112.84048 | 23468 ft | 411 kts | 295° |
| 2026-05-07 23:06 | 33.47862 | -112.87276 | 23963 ft | 415 kts | 296° |
| 2026-05-07 23:06 | 33.48964 | -112.90480 | 24505 ft | 417 kts | 296° |
| 2026-05-07 23:06 | 33.50085 | -112.93704 | 25012 ft | 420 kts | 296° |
| 2026-05-07 23:07 | 33.51215 | -112.96945 | 25512 ft | 423 kts | 296° |
| 2026-05-07 23:07 | 33.52340 | -113.00166 | 26005 ft | 426 kts | 296° |
| 2026-05-07 23:07 | 33.53489 | -113.03457 | 26495 ft | 429 kts | 296° |
| 2026-05-07 23:07 | 33.54646 | -113.06775 | 26971 ft | 432 kts | 296° |
| 2026-05-07 23:08 | 33.55808 | -113.10110 | 27462 ft | 435 kts | 297° |
| 2026-05-07 23:08 | 33.56977 | -113.13470 | 27919 ft | 439 kts | 297° |
| 2026-05-07 23:08 | 33.58157 | -113.16865 | 28375 ft | 442 kts | 297° |
| 2026-05-07 23:08 | 33.59342 | -113.20278 | 28823 ft | 445 kts | 297° |
| 2026-05-07 23:09 | 33.60538 | -113.23725 | 29278 ft | 448 kts | 297° |
| 2026-05-07 23:09 | 33.61736 | -113.27183 | 29714 ft | 451 kts | 297° |
| 2026-05-07 23:09 | 33.62943 | -113.30672 | 30118 ft | 454 kts | 297° |
| 2026-05-07 23:09 | 33.64160 | -113.34190 | 30504 ft | 457 kts | 297° |
| 2026-05-07 23:10 | 33.65378 | -113.37719 | 30886 ft | 459 kts | 297° |
| 2026-05-07 23:10 | 33.66602 | -113.41268 | 31275 ft | 461 kts | 297° |
| 2026-05-07 23:10 | 33.67830 | -113.44830 | 31645 ft | 463 kts | 297° |
| 2026-05-07 23:10 | 33.69063 | -113.48412 | 31988 ft | 466 kts | 297° |
| 2026-05-07 23:11 | 33.70302 | -113.52018 | 32101 ft | 466 kts | 297° |
| 2026-05-07 23:11 | 33.72747 | -113.59140 | 32094 ft | 464 kts | 297° |
| 2026-05-07 23:12 | 33.75206 | -113.66319 | 32066 ft | 465 kts | 297° |
| 2026-05-07 23:12 | 33.77671 | -113.73532 | 32050 ft | 466 kts | 297° |
| 2026-05-07 23:13 | 33.80135 | -113.80759 | 32022 ft | 467 kts | 297° |
| 2026-05-07 23:13 | 33.82595 | -113.87986 | 32004 ft | 467 kts | 297° |
| 2026-05-07 23:14 | 33.85053 | -113.95221 | 31983 ft | 467 kts | 297° |
| 2026-05-07 23:14 | 33.87091 | -114.01235 | 31997 ft | 467 kts | 297° |
| 2026-05-07 23:15 | 33.89544 | -114.08486 | 31989 ft | 467 kts | 297° |
| 2026-05-07 23:15 | 33.91306 | -114.16054 | 31992 ft | 475 kts | 286° |
| 2026-05-07 23:16 | 33.92639 | -114.23844 | 31979 ft | 475 kts | 286° |
| 2026-05-07 23:16 | 33.93962 | -114.31648 | 31976 ft | 475 kts | 286° |
| 2026-05-07 23:17 | 33.95278 | -114.39444 | 31973 ft | 475 kts | 286° |
| 2026-05-07 23:17 | 33.96579 | -114.47189 | 31976 ft | 474 kts | 286° |
| 2026-05-07 23:18 | 33.97882 | -114.54976 | 31971 ft | 474 kts | 286° |
| 2026-05-07 23:18 | 33.99182 | -114.62772 | 31884 ft | 474 kts | 286° |
| 2026-05-07 23:19 | 34.00243 | -114.69164 | 31845 ft | 474 kts | 286° |
| 2026-05-07 23:19 | 34.01037 | -114.73960 | 31845 ft | 474 kts | 286° |
| 2026-05-07 23:20 | 34.02325 | -114.81761 | 31842 ft | 474 kts | 286° |
| 2026-05-07 23:20 | 34.03603 | -114.89541 | 31851 ft | 473 kts | 286° |
| 2026-05-07 23:21 | 34.04878 | -114.97324 | 31835 ft | 473 kts | 286° |
| 2026-05-07 23:21 | 34.06137 | -115.05039 | 31779 ft | 467 kts | 285° |
| 2026-05-07 23:22 | 34.07379 | -115.12673 | 31847 ft | 462 kts | 285° |
| 2026-05-07 23:22 | 34.08593 | -115.20158 | 31836 ft | 461 kts | 285° |
| 2026-05-07 23:23 | 34.09821 | -115.27766 | 31835 ft | 461 kts | 285° |
| 2026-05-07 23:23 | 34.11018 | -115.35209 | 31843 ft | 461 kts | 285° |
| 2026-05-07 23:24 | 34.12230 | -115.42777 | 31833 ft | 461 kts | 284° |
| 2026-05-07 23:24 | 34.13443 | -115.50376 | 31830 ft | 461 kts | 284° |
| 2026-05-07 23:25 | 34.14627 | -115.57835 | 31844 ft | 461 kts | 284° |
| 2026-05-07 23:25 | 34.15829 | -115.65430 | 31841 ft | 460 kts | 284° |
| 2026-05-07 23:25 | 34.16220 | -115.69271 | 31831 ft | 464 kts | 272° |
| 2026-05-07 23:26 | 34.15915 | -115.73172 | 31851 ft | 467 kts | 266° |
| 2026-05-07 23:26 | 34.15220 | -115.80968 | 31873 ft | 467 kts | 266° |
| 2026-05-07 23:27 | 34.14094 | -115.92656 | 31923 ft | 467 kts | 266° |
| 2026-05-07 23:27 | 34.13335 | -116.00434 | 31947 ft | 467 kts | 266° |
| 2026-05-07 23:28 | 34.12573 | -116.08209 | 31960 ft | 466 kts | 266° |
| 2026-05-07 23:28 | 34.11806 | -116.15985 | 31962 ft | 466 kts | 266° |
| 2026-05-07 23:29 | 34.11035 | -116.23750 | 31958 ft | 465 kts | 266° |
| 2026-05-07 23:29 | 34.10244 | -116.31501 | 31946 ft | 467 kts | 265° |
| 2026-05-07 23:30 | 34.09419 | -116.39244 | 31933 ft | 468 kts | 265° |
| 2026-05-07 23:30 | 34.08586 | -116.47044 | 31895 ft | 468 kts | 265° |
| 2026-05-07 23:31 | 34.07750 | -116.54823 | 31900 ft | 467 kts | 265° |
| 2026-05-07 23:31 | 34.06991 | -116.62579 | 31913 ft | 466 kts | 266° |
| 2026-05-07 23:32 | 34.06268 | -116.70338 | 31937 ft | 465 kts | 266° |
| 2026-05-07 23:32 | 34.05538 | -116.78070 | 31866 ft | 466 kts | 266° |
| 2026-05-07 23:33 | 34.05170 | -116.81948 | 31045 ft | 466 kts | 265° |
| 2026-05-07 23:33 | 34.04799 | -116.85850 | 30072 ft | 471 kts | 266° |
| 2026-05-07 23:33 | 34.04370 | -116.89791 | 28930 ft | 476 kts | 263° |
| 2026-05-07 23:33 | 34.03857 | -116.93753 | 27827 ft | 480 kts | 263° |
| 2026-05-07 23:34 | 34.03349 | -116.97750 | 26746 ft | 483 kts | 264° |
| 2026-05-07 23:34 | 34.02842 | -117.01761 | 25710 ft | 485 kts | 263° |
| 2026-05-07 23:34 | 34.02360 | -117.05802 | 24704 ft | 486 kts | 264° |
| 2026-05-07 23:34 | 34.01894 | -117.09729 | 23781 ft | 473 kts | 264° |
| 2026-05-07 23:35 | 34.01481 | -117.13181 | 22876 ft | 461 kts | 264° |
| 2026-05-07 23:35 | 34.01146 | -117.15983 | 22127 ft | 453 kts | 264° |
| 2026-05-07 23:35 | 34.00700 | -117.19693 | 21169 ft | 442 kts | 264° |
| 2026-05-07 23:35 | 34.00265 | -117.23317 | 20245 ft | 432 kts | 264° |
| 2026-05-07 23:36 | 33.99840 | -117.26868 | 19380 ft | 424 kts | 264° |
| 2026-05-07 23:36 | 33.99423 | -117.30349 | 18542 ft | 415 kts | 263° |
| 2026-05-07 23:36 | 33.99022 | -117.33770 | 17669 ft | 409 kts | 264° |
| 2026-05-07 23:36 | 33.98626 | -117.37138 | 16778 ft | 402 kts | 264° |
| 2026-05-07 23:37 | 33.98237 | -117.40437 | 15937 ft | 395 kts | 264° |
| 2026-05-07 23:37 | 33.97853 | -117.43683 | 15117 ft | 389 kts | 263° |
| 2026-05-07 23:37 | 33.97476 | -117.46873 | 14462 ft | 379 kts | 263° |
| 2026-05-07 23:37 | 33.97225 | -117.49976 | 13900 ft | 365 kts | 274° |
| 2026-05-07 23:38 | 33.97356 | -117.52976 | 13406 ft | 352 kts | 274° |
| 2026-05-07 23:38 | 33.97435 | -117.55860 | 12998 ft | 338 kts | 274° |
| 2026-05-07 23:38 | 33.97495 | -117.58643 | 12609 ft | 335 kts | 273° |
| 2026-05-07 23:38 | 33.97541 | -117.61285 | 12219 ft | 329 kts | 274° |
| 2026-05-07 23:39 | 33.97578 | -117.63910 | 11850 ft | 318 kts | 274° |
| 2026-05-07 23:39 | 33.97612 | -117.66526 | 11471 ft | 307 kts | 273° |
| 2026-05-07 23:39 | 33.97643 | -117.69061 | 11109 ft | 297 kts | 273° |
| 2026-05-07 23:39 | 33.97672 | -117.71512 | 10753 ft | 288 kts | 274° |
| 2026-05-07 23:40 | 33.97700 | -117.73883 | 10412 ft | 279 kts | 274° |
| 2026-05-07 23:40 | 33.97726 | -117.76185 | 10083 ft | 271 kts | 274° |
| 2026-05-07 23:40 | 33.97751 | -117.78417 | 9758 ft | 263 kts | 274° |
| 2026-05-07 23:40 | 33.97774 | -117.80590 | 9422 ft | 256 kts | 273° |
| 2026-05-07 23:41 | 33.97797 | -117.82701 | 9103 ft | 248 kts | 273° |
| 2026-05-07 23:41 | 33.97821 | -117.84765 | 8809 ft | 245 kts | 272° |
| 2026-05-07 23:41 | 33.97843 | -117.86817 | 8522 ft | 244 kts | 272° |
| 2026-05-07 23:41 | 33.97864 | -117.88865 | 8205 ft | 244 kts | 272° |
| 2026-05-07 23:42 | 33.97883 | -117.90901 | 7955 ft | 241 kts | 272° |
| 2026-05-07 23:42 | 33.97903 | -117.92903 | 7572 ft | 238 kts | 271° |
| 2026-05-07 23:42 | 33.97922 | -117.94879 | 7066 ft | 233 kts | 271° |
| 2026-05-07 23:42 | 33.97941 | -117.96813 | 6576 ft | 229 kts | 271° |
| 2026-05-07 23:43 | 33.97959 | -117.98688 | 6302 ft | 214 kts | 271° |
| 2026-05-07 23:43 | 33.97976 | -118.00404 | 6247 ft | 197 kts | 271° |
| 2026-05-07 23:43 | 33.97992 | -118.02047 | 6152 ft | 202 kts | 271° |
| 2026-05-07 23:43 | 33.98007 | -118.03797 | 5958 ft | 214 kts | 271° |
| 2026-05-07 23:44 | 33.98023 | -118.05465 | 5744 ft | 218 kts | 271° |
| 2026-05-07 23:44 | 33.98039 | -118.07313 | 5492 ft | 218 kts | 271° |
| 2026-05-07 23:44 | 33.98054 | -118.09136 | 5231 ft | 217 kts | 271° |
| 2026-05-07 23:44 | 33.98071 | -118.10925 | 4979 ft | 216 kts | 271° |
| 2026-05-07 23:45 | 33.97990 | -118.12723 | 4693 ft | 216 kts | 263° |
| 2026-05-07 23:45 | 33.97796 | -118.14512 | 4377 ft | 215 kts | 263° |
| 2026-05-07 23:45 | 33.97609 | -118.16295 | 4135 ft | 212 kts | 263° |
| 2026-05-07 23:45 | 33.97429 | -118.18054 | 3866 ft | 212 kts | 264° |
| 2026-05-07 23:46 | 33.97253 | -118.19815 | 3573 ft | 212 kts | 264° |
| 2026-05-07 23:46 | 33.97080 | -118.21581 | 3292 ft | 213 kts | 264° |
| 2026-05-07 23:46 | 33.96913 | -118.23353 | 2978 ft | 213 kts | 265° |
| 2026-05-07 23:46 | 33.96747 | -118.25122 | 2655 ft | 211 kts | 263° |
| 2026-05-07 23:47 | 33.96571 | -118.26842 | 2345 ft | 201 kts | 263° |
| 2026-05-07 23:47 | 33.96406 | -118.28466 | 2055 ft | 190 kts | 263° |
| 2026-05-07 23:47 | 33.96250 | -118.30000 | 1808 ft | 176 kts | 263° |
| 2026-05-07 23:47 | 33.96110 | -118.31371 | 1590 ft | 155 kts | 263° |
| 2026-05-07 23:48 | 33.95988 | -118.32579 | 1430 ft | 138 kts | 263° |
| 2026-05-07 23:48 | 33.95869 | -118.33724 | 1255 ft | 136 kts | 263° |
| 2026-05-07 23:48 | 33.95757 | -118.34857 | 1016 ft | 137 kts | 266° |
| 2026-05-07 23:48 | 33.95631 | -118.35980 | 831 ft | 135 kts | 263° |
| 2026-05-07 23:49 | 33.95530 | -118.37087 | 642 ft | 134 kts | 262° |
| 2026-05-07 23:49 | 33.95410 | -118.38227 | 473 ft | 139 kts | 263° |
| 2026-05-07 23:49 | 33.95298 | -118.39356 | 301 ft | 134 kts | 263° |
| 2026-05-07 23:49 | 33.95185 | -118.40453 | 135 ft | 127 kts | 263° |
| 2026-05-07 23:50 | 33.95090 | -118.41367 | 115 ft | 89 kts | 263° |
| 2026-05-07 23:50 | 33.95037 | -118.41897 | 119 ft | 57 kts | 263° |
| 2026-05-07 23:50 | 33.94988 | -118.42352 | 115 ft | 48 kts | 259° |
| 2026-05-07 23:50 | 33.94892 | -118.42626 | 115 ft | 20 kts | 232° |
| 2026-05-07 23:51 | 33.94861 | -118.42670 | 113 ft | 2 kts | 226° |
| 2026-05-07 23:51 | 33.94861 | -118.42671 | 115 ft | 0 kts | 226° |
| 2026-05-07 23:52 | 33.94839 | -118.42695 | 115 ft | 12 kts | 222° |
| 2026-05-07 23:52 | 33.94737 | -118.42768 | 114 ft | 19 kts | 196° |
| 2026-05-07 23:52 | 33.94641 | -118.42732 | 112 ft | 10 kts | 112° |
| 2026-05-07 23:53 | 33.94643 | -118.42636 | 113 ft | 13 kts | 83° |
| 2026-05-07 23:53 | 33.94655 | -118.42511 | 112 ft | 20 kts | 83° |
| 2026-05-07 23:53 | 33.94679 | -118.42281 | 112 ft | 35 kts | 84° |
| 2026-05-07 23:53 | 33.94710 | -118.41968 | 111 ft | 40 kts | 82° |
| 2026-05-07 23:54 | 33.94669 | -118.41817 | 110 ft | 8 kts | 128° |
| 2026-05-07 23:54 | 33.94652 | -118.41777 | 110 ft | 13 kts | 108° |
| 2026-05-07 23:54 | 33.94663 | -118.41577 | 110 ft | 34 kts | 83° |
| 2026-05-07 23:54 | 33.94699 | -118.41264 | 111 ft | 40 kts | 79° |
| 2026-05-07 23:55 | 33.94747 | -118.40938 | 108 ft | 39 kts | 81° |
| 2026-05-07 23:55 | 33.94777 | -118.40658 | 110 ft | 33 kts | 83° |
| 2026-05-07 23:55 | 33.94803 | -118.40396 | 111 ft | 35 kts | 83° |
| 2026-05-07 23:55 | 33.94836 | -118.40152 | 111 ft | 24 kts | 82° |
| 2026-05-07 23:56 | 33.94836 | -118.40029 | 110 ft | 7 kts | 126° |
| 2026-05-07 23:56 | 33.94806 | -118.40016 | 110 ft | 4 kts | 187° |
| 2026-05-07 23:56 | 33.94760 | -118.40015 | 110 ft | 9 kts | 175° |
| 2026-05-07 23:56 | 33.94712 | -118.40016 | 110 ft | 3 kts | 209° |
| 2026-05-07 23:57 | 33.94698 | -118.40041 | 110 ft | 3 kts | 249° |
| 2026-05-07 23:57 | 33.94695 | -118.40056 | 110 ft | 0 kts | 261° |
| 2026-05-07 23:57 | 33.94694 | -118.40059 | 110 ft | 0 kts | 261° |